createdAt,value
2023-02-13T00:01:12.951Z,72.42
2023-02-13T00:03:40.941Z,72.57
2023-02-13T00:06:10.053Z,72.63
2023-02-13T00:08:37.936Z,72.49
2023-02-13T00:11:06.055Z,72.21
2023-02-13T00:13:38.350Z,72.53
2023-02-13T00:16:06.658Z,72.28
2023-02-13T00:18:37.215Z,72.17
2023-02-13T00:21:11.408Z,72.06
2023-02-13T00:23:40.374Z,71.97
2023-02-13T00:26:11.692Z,71.45
2023-02-13T00:28:40.721Z,71.38
2023-02-13T00:31:11.752Z,71.52
2023-02-13T00:33:40.748Z,71.70
2023-02-13T00:36:12.251Z,71.54
2023-02-13T00:38:41.601Z,71.50
2023-02-13T00:41:10.679Z,71.51
2023-02-13T00:43:38.981Z,71.67
2023-02-13T00:46:08.774Z,71.75
2023-02-13T00:48:37.386Z,71.92
2023-02-13T00:51:09.220Z,72.14
2023-02-13T00:53:38.683Z,72.17
2023-02-13T00:56:07.697Z,72.50
2023-02-13T00:58:35.738Z,72.95
2023-02-13T01:01:03.918Z,73.42
2023-02-13T01:03:32.053Z,73.59
2023-02-13T01:06:00.207Z,73.97
2023-02-13T01:08:30.915Z,74.08
2023-02-13T01:10:59.410Z,74.22
2023-02-13T01:13:27.676Z,74.36
2023-02-13T01:15:55.791Z,74.31
2023-02-13T01:18:23.932Z,74.30
2023-02-13T01:21:00.685Z,74.33
2023-02-13T01:23:33.661Z,73.71
2023-02-13T01:26:04.524Z,73.19
2023-02-13T01:28:32.968Z,72.86
2023-02-13T01:31:01.819Z,72.81
2023-02-13T01:33:30.431Z,73.07
2023-02-13T01:35:58.487Z,73.11
2023-02-13T01:38:26.703Z,73.12
2023-02-13T01:40:55.431Z,73.09
2023-02-13T01:43:24.646Z,72.87
2023-02-13T01:45:57.132Z,72.94
2023-02-13T01:48:27.538Z,72.63
2023-02-13T01:51:02.174Z,72.63
2023-02-13T01:53:30.556Z,72.94
2023-02-13T01:56:12.118Z,73.01
2023-02-13T01:58:46.076Z,73.38
2023-02-13T02:01:14.076Z,73.46
2023-02-13T02:03:46.096Z,73.55
2023-02-13T02:06:42.921Z,73.56
2023-02-13T02:09:16.879Z,73.43
2023-02-13T02:12:18.393Z,73.35
2023-02-13T02:14:46.594Z,73.32
2023-02-13T02:17:14.532Z,73.43
2023-02-13T02:20:07.046Z,73.57
2023-02-13T02:22:46.825Z,73.46
2023-02-13T02:25:31.872Z,73.49
2023-02-13T02:28:22.026Z,73.25
2023-02-13T02:31:41.112Z,72.42
2023-02-13T02:34:26.312Z,71.90
2023-02-13T02:37:19.163Z,71.57
2023-02-13T02:40:14.566Z,71.43
2023-02-13T02:43:12.669Z,71.56
2023-02-13T02:46:16.142Z,71.54
2023-02-13T02:49:24.051Z,71.68
2023-02-13T02:52:21.246Z,71.59
2023-02-13T02:55:06.710Z,71.31
2023-02-13T02:58:01.363Z,71.03
2023-02-13T03:00:52.146Z,71.14
2023-02-13T03:03:43.302Z,71.27
2023-02-13T03:06:22.708Z,71.30
2023-02-13T03:09:20.101Z,71.55
2023-02-13T03:12:14.103Z,71.85
2023-02-13T03:14:43.000Z,72.18
2023-02-13T03:17:32.222Z,72.01
2023-02-13T03:20:27.061Z,72.23
2023-02-13T03:23:15.558Z,72.03
2023-02-13T03:25:51.166Z,72.32
2023-02-13T03:28:56.612Z,72.54
2023-02-13T03:31:35.394Z,72.56
2023-02-13T03:34:12.362Z,72.63
2023-02-13T03:37:23.115Z,72.55
2023-02-13T03:40:16.289Z,72.72
2023-02-13T03:42:53.049Z,72.68
2023-02-13T03:45:48.802Z,72.83
2023-02-13T03:48:39.281Z,73.07
2023-02-13T03:51:10.539Z,73.26
2023-02-13T03:53:42.516Z,73.32
2023-02-13T03:56:32.084Z,73.56
2023-02-13T03:59:17.768Z,73.69
2023-02-13T04:01:58.567Z,73.42
2023-02-13T04:04:44.366Z,73.49
2023-02-13T04:07:31.996Z,73.49
2023-02-13T04:10:07.603Z,73.58
2023-02-13T04:13:12.751Z,73.58
2023-02-13T04:15:46.198Z,73.57
2023-02-13T04:18:22.045Z,73.37
2023-02-13T04:20:50.332Z,73.49
2023-02-13T04:23:19.521Z,73.45
2023-02-13T04:25:50.632Z,73.58
2023-02-13T04:28:18.857Z,73.83
2023-02-13T04:30:47.046Z,73.85
2023-02-13T04:33:15.429Z,73.79
2023-02-13T04:35:43.426Z,73.86
2023-02-13T04:38:11.547Z,73.62
2023-02-13T04:40:39.543Z,73.61
2023-02-13T04:43:07.609Z,73.84
2023-02-13T04:45:35.551Z,73.92
2023-02-13T04:48:03.692Z,73.99
2023-02-13T04:50:31.715Z,74.14
2023-02-13T04:52:59.569Z,74.22
2023-02-13T04:55:28.746Z,74.16
2023-02-13T04:57:57.338Z,74.18
2023-02-13T05:00:28.158Z,74.32
2023-02-13T05:03:04.812Z,74.61
2023-02-13T05:05:32.887Z,74.91
2023-02-13T05:08:01.220Z,74.90
2023-02-13T05:10:30.057Z,74.86
2023-02-13T05:12:58.504Z,74.73
2023-02-13T05:15:27.336Z,74.72
2023-02-13T05:17:55.222Z,74.58
2023-02-13T05:20:23.209Z,74.48
2023-02-13T05:23:12.018Z,74.50
2023-02-13T05:25:41.937Z,74.53
2023-02-13T05:28:30.046Z,74.39
2023-02-13T05:30:58.348Z,74.32
2023-02-13T05:33:27.406Z,74.57
2023-02-13T05:35:55.473Z,75.06
2023-02-13T05:38:23.663Z,75.18
2023-02-13T05:40:51.607Z,75.09
2023-02-13T05:43:20.242Z,75.26
2023-02-13T05:45:48.391Z,75.11
2023-02-13T05:48:16.221Z,75.38
2023-02-13T05:50:48.307Z,75.32
2023-02-13T05:53:16.365Z,75.40
2023-02-13T05:55:44.441Z,75.46
2023-02-13T05:58:12.427Z,75.36
2023-02-13T06:00:40.290Z,75.62
2023-02-13T06:03:08.375Z,75.62
2023-02-13T06:05:36.511Z,75.39
2023-02-13T06:08:04.812Z,75.34
2023-02-13T06:10:32.685Z,75.48
2023-02-13T06:13:00.580Z,75.51
2023-02-13T06:15:28.590Z,75.47
2023-02-13T06:17:56.608Z,75.81
2023-02-13T06:20:24.909Z,76.05
2023-02-13T06:22:53.667Z,76.18
2023-02-13T06:25:22.149Z,76.08
2023-02-13T06:27:50.528Z,76.02
2023-02-13T06:30:19.108Z,75.84
2023-02-13T06:32:48.628Z,75.46
2023-02-13T06:35:17.104Z,75.28
2023-02-13T06:37:45.511Z,75.14
2023-02-13T06:40:15.391Z,75.01
2023-02-13T06:42:44.980Z,75.33
2023-02-13T06:45:13.674Z,75.54
2023-02-13T06:47:43.879Z,75.82
2023-02-13T06:50:13.707Z,75.82
2023-02-13T06:52:52.316Z,75.74
2023-02-13T06:55:20.988Z,75.56
2023-02-13T06:57:49.084Z,75.51
2023-02-13T07:00:20.441Z,75.47
2023-02-13T07:02:49.210Z,75.42
2023-02-13T07:05:17.455Z,75.50
2023-02-13T07:07:45.772Z,75.43
2023-02-13T07:10:14.912Z,75.25
2023-02-13T07:12:43.709Z,75.30
2023-02-13T07:15:12.742Z,75.02
2023-02-13T07:17:40.742Z,74.75
2023-02-13T07:20:09.453Z,74.51
2023-02-13T07:22:37.508Z,74.07
2023-02-13T07:25:05.700Z,73.91
2023-02-13T07:27:33.740Z,74.21
2023-02-13T07:30:01.799Z,74.22
2023-02-13T07:32:29.865Z,73.85
2023-02-13T07:35:01.994Z,72.84
2023-02-13T07:37:31.853Z,72.16
2023-02-13T07:40:00.540Z,71.61
2023-02-13T07:42:28.661Z,70.77
2023-02-13T07:44:56.728Z,70.44
2023-02-13T07:47:24.713Z,70.06
2023-02-13T07:49:52.676Z,69.02
2023-02-13T07:52:20.604Z,68.45
2023-02-13T07:54:51.068Z,68.28
2023-02-13T07:57:19.585Z,68.28
2023-02-13T07:59:47.525Z,68.17
2023-02-13T08:02:16.549Z,67.33
2023-02-13T08:04:47.751Z,67.42
2023-02-13T08:07:17.841Z,66.78
2023-02-13T08:10:04.830Z,66.36
2023-02-13T08:12:35.862Z,66.04
2023-02-13T08:15:04.423Z,65.80
2023-02-13T08:17:32.930Z,64.92
2023-02-13T08:20:00.966Z,64.26
2023-02-13T08:22:28.970Z,63.49
2023-02-13T08:24:56.971Z,64.01
2023-02-13T08:27:25.448Z,64.07
2023-02-13T08:29:53.248Z,64.02
2023-02-13T08:32:21.244Z,63.76
2023-02-13T08:34:49.256Z,63.61
2023-02-13T08:37:17.411Z,62.96
2023-02-13T08:39:45.295Z,62.22
2023-02-13T08:42:15.811Z,62.04
2023-02-13T08:44:45.207Z,61.49
2023-02-13T08:47:13.267Z,60.92
2023-02-13T08:49:41.401Z,61.07
2023-02-13T08:52:09.430Z,61.24
2023-02-13T08:54:37.422Z,61.05
2023-02-13T08:57:05.340Z,60.64
2023-02-13T08:59:33.338Z,60.55
2023-02-13T09:02:01.448Z,60.17
2023-02-13T09:04:29.553Z,59.84
2023-02-13T09:06:57.493Z,59.86
2023-02-13T09:09:25.409Z,59.78
2023-02-13T09:11:56.282Z,59.24
2023-02-13T09:14:27.168Z,59.05
2023-02-13T09:16:55.207Z,58.78
2023-02-13T09:19:23.323Z,58.50
2023-02-13T09:21:51.278Z,58.38
2023-02-13T09:24:19.296Z,58.24
2023-02-13T09:26:47.194Z,57.85
2023-02-13T09:29:15.063Z,57.31
2023-02-13T09:31:43.235Z,57.00
2023-02-13T09:34:14.004Z,57.65
2023-02-13T09:36:41.943Z,57.80
2023-02-13T09:39:10.044Z,57.41
2023-02-13T09:41:42.588Z,57.30
2023-02-13T09:44:34.258Z,57.59
2023-02-13T09:47:15.046Z,57.07
2023-02-13T09:49:52.989Z,56.98
2023-02-13T09:52:21.235Z,56.83
2023-02-13T09:54:49.168Z,57.09
2023-02-13T09:57:25.549Z,57.20
2023-02-13T10:00:02.278Z,56.82
2023-02-13T10:02:36.007Z,56.70
2023-02-13T10:05:26.890Z,56.62
2023-02-13T10:08:13.076Z,56.77
2023-02-13T10:11:19.736Z,56.31
2023-02-13T10:14:08.542Z,55.65
2023-02-13T10:16:48.911Z,55.91
2023-02-13T10:19:44.519Z,55.85
2023-02-13T10:22:17.800Z,55.75
2023-02-13T10:24:51.256Z,55.14
2023-02-13T10:27:36.261Z,54.24
2023-02-13T10:30:18.186Z,54.93
2023-02-13T10:33:19.737Z,55.22
2023-02-13T10:36:03.072Z,55.41
2023-02-13T10:38:34.593Z,55.20
2023-02-13T10:41:30.275Z,54.91
2023-02-13T10:44:19.863Z,54.91
2023-02-13T10:47:10.769Z,55.05
2023-02-13T10:49:57.336Z,55.09
2023-02-13T10:52:58.371Z,55.40
2023-02-13T10:55:44.879Z,55.01
2023-02-13T10:58:19.618Z,54.95
2023-02-13T11:00:53.499Z,55.22
2023-02-13T11:03:22.729Z,55.37
2023-02-13T11:05:52.295Z,55.62
2023-02-13T11:08:29.532Z,55.67
2023-02-13T11:10:57.516Z,55.65
2023-02-13T11:13:28.463Z,55.82
2023-02-13T11:16:02.253Z,55.93
2023-02-13T11:18:50.355Z,56.18
2023-02-13T11:21:23.684Z,56.48
2023-02-13T11:23:56.430Z,56.43
2023-02-13T11:26:31.531Z,56.30
2023-02-13T11:29:16.184Z,56.18
2023-02-13T11:31:44.297Z,55.99
2023-02-13T11:34:28.317Z,56.34
2023-02-13T11:37:14.387Z,56.48
2023-02-13T11:39:45.264Z,56.49
2023-02-13T11:42:19.808Z,56.85
2023-02-13T11:44:54.794Z,56.73
2023-02-13T11:47:42.093Z,56.06
2023-02-13T11:50:30.380Z,56.15
2023-02-13T11:53:00.306Z,56.70
2023-02-13T11:55:40.079Z,56.80
2023-02-13T11:58:11.115Z,56.82
2023-02-13T12:00:41.523Z,56.63
2023-02-13T12:03:22.284Z,56.29
2023-02-13T12:06:05.767Z,56.27
2023-02-13T12:08:37.001Z,56.36
2023-02-13T12:11:21.487Z,56.63
2023-02-13T12:13:50.885Z,56.45
2023-02-13T12:16:21.917Z,56.80
2023-02-13T12:18:54.231Z,56.95
2023-02-13T12:21:38.491Z,57.09
2023-02-13T12:24:09.258Z,57.32
2023-02-13T12:26:48.883Z,57.23
2023-02-13T12:29:35.115Z,57.51
2023-02-13T12:32:26.031Z,57.42
2023-02-13T12:35:18.749Z,57.83
2023-02-13T12:37:49.501Z,58.13
2023-02-13T12:40:35.413Z,58.31
2023-02-13T12:43:18.704Z,58.53
2023-02-13T12:45:53.942Z,58.49
2023-02-13T12:48:37.117Z,58.37
2023-02-13T12:51:19.687Z,58.18
2023-02-13T12:53:53.895Z,58.20
2023-02-13T12:56:45.556Z,58.19
2023-02-13T12:59:56.290Z,58.16
2023-02-13T13:02:30.314Z,58.05
2023-02-13T13:05:17.682Z,57.76
2023-02-13T13:07:58.720Z,57.79
2023-02-13T13:10:38.496Z,58.14
2023-02-13T13:13:15.238Z,58.05
2023-02-13T13:15:49.208Z,57.97
2023-02-13T13:18:33.274Z,58.16
2023-02-13T13:21:21.071Z,57.99
2023-02-13T13:24:36.984Z,58.08
2023-02-13T13:27:14.717Z,58.12
2023-02-13T13:29:59.558Z,58.31
2023-02-13T13:32:30.189Z,58.31
2023-02-13T13:34:58.872Z,58.11
2023-02-13T13:37:30.865Z,58.34
2023-02-13T13:40:18.130Z,58.42
2023-02-13T13:43:05.502Z,58.55
2023-02-13T13:45:33.250Z,58.44
2023-02-13T13:48:21.248Z,58.40
2023-02-13T13:50:49.808Z,58.30
2023-02-13T13:53:20.526Z,58.32
2023-02-13T13:55:48.750Z,58.05
2023-02-13T13:58:31.640Z,58.37
2023-02-13T14:01:14.816Z,58.48
2023-02-13T14:03:45.476Z,58.40
2023-02-13T14:06:16.274Z,58.68
2023-02-13T14:08:47.549Z,58.60
2023-02-13T14:11:30.432Z,58.41
2023-02-13T14:13:58.658Z,58.46
2023-02-13T14:16:43.513Z,58.42
2023-02-13T14:19:32.576Z,58.56
2023-02-13T14:22:18.953Z,58.57
2023-02-13T14:25:07.100Z,58.72
2023-02-13T14:27:38.738Z,58.67
2023-02-13T14:30:27.586Z,58.79
2023-02-13T14:32:56.176Z,59.06
2023-02-13T14:35:28.171Z,59.26
2023-02-13T14:37:59.633Z,59.28
2023-02-13T14:40:46.571Z,59.01
2023-02-13T14:43:35.267Z,58.87
2023-02-13T14:46:27.334Z,58.84
2023-02-13T14:49:30.505Z,58.85
2023-02-13T14:52:16.125Z,58.91
2023-02-13T14:54:51.111Z,59.36
2023-02-13T14:57:26.156Z,59.48
2023-02-13T14:59:58.525Z,59.70
2023-02-13T15:02:30.193Z,59.83
2023-02-13T15:05:20.199Z,59.64
2023-02-13T15:07:53.916Z,59.61
2023-02-13T15:10:40.672Z,59.88
2023-02-13T15:13:25.275Z,59.93
2023-02-13T15:16:14.061Z,59.94
2023-02-13T15:18:42.044Z,60.13
2023-02-13T15:21:23.163Z,60.25
2023-02-13T15:23:53.829Z,60.77
2023-02-13T15:26:24.328Z,60.88
2023-02-13T15:29:04.561Z,61.05
2023-02-13T15:31:34.880Z,61.17
2023-02-13T15:34:02.881Z,61.31
2023-02-13T15:36:39.706Z,61.59
2023-02-13T15:39:10.426Z,61.69
2023-02-13T15:41:47.601Z,61.82
2023-02-13T15:44:27.669Z,62.18
2023-02-13T15:47:03.290Z,62.32
2023-02-13T15:49:38.739Z,62.88
2023-02-13T15:52:13.499Z,63.11
2023-02-13T15:54:49.452Z,63.27
2023-02-13T15:57:18.369Z,63.42
2023-02-13T15:59:47.623Z,63.59
2023-02-13T16:02:25.849Z,63.61
2023-02-13T16:04:55.679Z,63.91
2023-02-13T16:07:23.744Z,64.13
2023-02-13T16:09:52.598Z,64.32
2023-02-13T16:12:26.720Z,64.65
2023-02-13T16:15:07.716Z,64.84
2023-02-13T16:17:38.615Z,65.05
2023-02-13T16:20:17.490Z,65.05
2023-02-13T16:22:54.713Z,65.31
2023-02-13T16:25:33.183Z,65.46
2023-02-13T16:28:18.426Z,65.69
2023-02-13T16:30:52.757Z,65.83
2023-02-13T16:33:28.998Z,66.29
2023-02-13T16:36:01.617Z,66.65
2023-02-13T16:38:39.857Z,66.61
2023-02-13T16:41:20.040Z,66.51
2023-02-13T16:43:55.927Z,66.46
2023-02-13T16:46:48.610Z,66.73
2023-02-13T16:49:21.198Z,66.79
2023-02-13T16:51:57.047Z,66.79
2023-02-13T16:54:38.623Z,66.75
2023-02-13T16:57:15.554Z,66.78
2023-02-13T16:59:55.490Z,67.14
2023-02-13T17:02:41.116Z,67.33
2023-02-13T17:05:09.072Z,67.14
2023-02-13T17:07:48.871Z,67.29
2023-02-13T17:10:23.103Z,67.59
2023-02-13T17:12:51.588Z,67.88
2023-02-13T17:15:24.526Z,68.14
2023-02-13T17:17:56.543Z,68.25
2023-02-13T17:20:33.637Z,68.00
2023-02-13T17:23:04.555Z,68.35
2023-02-13T17:25:35.535Z,68.52
2023-02-13T17:28:09.472Z,68.81
2023-02-13T17:30:37.404Z,68.91
2023-02-13T17:33:11.130Z,69.05
2023-02-13T17:35:39.467Z,69.08
2023-02-13T17:38:09.518Z,69.26
2023-02-13T17:40:38.071Z,69.17
2023-02-13T17:43:05.912Z,69.11
2023-02-13T17:45:35.373Z,69.03
2023-02-13T17:48:04.994Z,69.01
2023-02-13T17:50:34.897Z,69.11
2023-02-13T17:53:06.930Z,69.14
2023-02-13T17:55:35.827Z,69.34
2023-02-13T17:58:04.041Z,69.51
2023-02-13T18:00:33.927Z,69.47
2023-02-13T18:03:04.800Z,69.54
2023-02-13T18:05:33.294Z,69.53
2023-02-13T18:08:04.260Z,69.62
2023-02-13T18:10:35.709Z,69.35
2023-02-13T18:13:06.657Z,69.50
2023-02-13T18:15:40.848Z,69.49
2023-02-13T18:18:09.274Z,69.47
2023-02-13T18:20:37.311Z,69.61
2023-02-13T18:23:07.281Z,69.69
2023-02-13T18:25:36.195Z,69.76
2023-02-13T18:28:04.213Z,69.75
2023-02-13T18:30:32.194Z,69.71
2023-02-13T18:33:00.207Z,69.75
2023-02-13T18:35:28.095Z,69.85
2023-02-13T18:37:56.018Z,69.92
2023-02-13T18:40:23.942Z,69.94
2023-02-13T18:42:52.499Z,70.28
2023-02-13T18:45:20.544Z,70.27
2023-02-13T18:47:48.370Z,70.42
2023-02-13T18:50:16.512Z,70.48
2023-02-13T18:52:44.563Z,70.48
2023-02-13T18:55:12.487Z,70.45
2023-02-13T18:57:43.638Z,70.52
2023-02-13T19:00:14.428Z,70.68
2023-02-13T19:02:42.336Z,70.67
2023-02-13T19:05:10.386Z,70.68
2023-02-13T19:07:38.362Z,70.75
2023-02-13T19:10:07.236Z,70.80
2023-02-13T19:12:35.624Z,71.35
2023-02-13T19:15:04.186Z,71.10
2023-02-13T19:17:32.088Z,70.93
2023-02-13T19:19:59.972Z,71.16
2023-02-13T19:22:27.817Z,71.05
2023-02-13T19:24:55.735Z,71.16
2023-02-13T19:27:23.766Z,71.30
2023-02-13T19:29:51.779Z,71.22
2023-02-13T19:32:19.649Z,71.21
2023-02-13T19:34:47.693Z,71.25
2023-02-13T19:37:18.139Z,71.35
2023-02-13T19:39:46.054Z,71.18
2023-02-13T19:42:13.942Z,71.26
2023-02-13T19:44:41.780Z,71.32
2023-02-13T19:47:09.755Z,71.41
2023-02-13T19:49:37.595Z,71.49
2023-02-13T19:52:05.441Z,71.46
2023-02-13T19:54:34.125Z,71.68
2023-02-13T19:57:05.270Z,71.76
2023-02-13T19:59:33.389Z,71.79
2023-02-13T20:02:01.977Z,71.86
2023-02-13T20:04:32.311Z,72.00
2023-02-13T20:07:00.102Z,72.17
2023-02-13T20:09:28.206Z,72.21
2023-02-13T20:11:56.112Z,72.34
2023-02-13T20:14:23.999Z,72.64
2023-02-13T20:16:51.926Z,72.83
2023-02-13T20:19:20.293Z,73.14
2023-02-13T20:21:48.273Z,73.29
2023-02-13T20:24:16.581Z,73.24
2023-02-13T20:26:44.494Z,73.50
2023-02-13T20:29:12.395Z,73.74
2023-02-13T20:31:41.614Z,73.69
2023-02-13T20:34:10.207Z,73.76
2023-02-13T20:36:38.201Z,73.98
2023-02-13T20:39:07.793Z,74.12
2023-02-13T20:41:37.402Z,74.12
2023-02-13T20:44:22.475Z,74.32
2023-02-13T20:46:51.244Z,74.44
2023-02-13T20:49:22.086Z,74.58
2023-02-13T20:51:50.176Z,74.77
2023-02-13T20:54:18.312Z,74.62
2023-02-13T20:56:49.081Z,74.58
2023-02-13T20:59:16.859Z,74.43
2023-02-13T21:01:55.687Z,74.55
2023-02-13T21:04:23.532Z,74.61
2023-02-13T21:06:51.386Z,74.71
2023-02-13T21:09:19.375Z,74.58
2023-02-13T21:11:47.366Z,74.60
2023-02-13T21:14:15.231Z,74.29
2023-02-13T21:16:43.605Z,74.25
2023-02-13T21:19:19.365Z,74.14
2023-02-13T21:21:47.502Z,73.80
2023-02-13T21:24:19.395Z,73.72
2023-02-13T21:26:50.519Z,73.45
2023-02-13T21:29:19.304Z,73.38
2023-02-13T21:31:47.962Z,73.17
2023-02-13T21:34:17.684Z,73.12
2023-02-13T21:36:46.199Z,73.03
2023-02-13T21:39:14.896Z,73.02
2023-02-13T21:41:50.550Z,73.07
2023-02-13T21:44:18.484Z,73.05
2023-02-13T21:46:46.790Z,73.38
2023-02-13T21:49:17.454Z,73.22
2023-02-13T21:51:46.158Z,73.17
2023-02-13T21:54:15.033Z,73.22
2023-02-13T21:56:44.234Z,73.46
2023-02-13T21:59:16.659Z,73.59
2023-02-13T22:01:54.619Z,73.52
2023-02-13T22:04:22.936Z,73.37
2023-02-13T22:06:52.378Z,73.27
2023-02-13T22:09:21.906Z,73.19
2023-02-13T22:11:51.830Z,72.99
2023-02-13T22:14:25.054Z,72.66
2023-02-13T22:16:53.079Z,72.78
2023-02-13T22:19:23.618Z,72.83
2023-02-13T22:21:54.320Z,72.49
2023-02-13T22:24:22.255Z,72.31
2023-02-13T22:26:50.259Z,72.29
2023-02-13T22:29:18.646Z,72.16
2023-02-13T22:31:46.972Z,72.24
2023-02-13T22:34:14.989Z,72.36
2023-02-13T22:36:43.085Z,72.40
2023-02-13T22:39:12.155Z,72.68
2023-02-13T22:41:41.257Z,72.51
2023-02-13T22:44:09.140Z,72.19
2023-02-13T22:46:37.101Z,72.20
2023-02-13T22:49:05.126Z,71.82
2023-02-13T22:51:35.666Z,71.71
2023-02-13T22:54:04.578Z,71.55
2023-02-13T22:56:33.128Z,71.92
2023-02-13T22:59:01.007Z,72.08
2023-02-13T23:01:29.293Z,72.28
2023-02-13T23:03:57.764Z,72.31
2023-02-13T23:06:30.189Z,72.55
2023-02-13T23:08:58.113Z,72.33
2023-02-13T23:11:46.767Z,72.44
2023-02-13T23:14:16.020Z,72.11
2023-02-13T23:17:03.363Z,71.77
2023-02-13T23:19:31.839Z,71.41
2023-02-13T23:22:00.157Z,70.97
2023-02-13T23:24:29.514Z,71.17
2023-02-13T23:26:58.670Z,71.29
2023-02-13T23:29:27.401Z,71.37
2023-02-13T23:31:56.263Z,71.25
2023-02-13T23:34:24.528Z,71.27
2023-02-13T23:36:52.531Z,71.28
2023-02-13T23:39:21.286Z,71.50
2023-02-13T23:41:49.115Z,71.46
2023-02-13T23:44:17.042Z,71.46
2023-02-13T23:46:45.005Z,71.69
2023-02-13T23:49:12.950Z,71.79
2023-02-13T23:51:40.821Z,71.94
2023-02-13T23:54:08.922Z,72.15
2023-02-13T23:56:37.449Z,72.35
2023-02-13T23:59:05.365Z,72.55
